createdAt,value
2023-02-11T00:10:36.836Z,28.12
2023-02-11T00:11:36.824Z,28.07
2023-02-11T00:12:36.849Z,28.09
2023-02-11T00:13:36.849Z,28.09
2023-02-11T00:14:36.860Z,28.05
2023-02-11T00:15:36.869Z,28.09
2023-02-11T00:16:36.937Z,28.12
2023-02-11T00:17:36.890Z,28.11
2023-02-11T00:30:37.114Z,28.01
2023-02-11T00:31:37.203Z,27.98
2023-02-11T00:32:37.009Z,28.02
2023-02-11T00:33:37.034Z,28.02
2023-02-11T00:34:37.039Z,28.01
2023-02-11T00:35:37.047Z,27.99
2023-02-11T00:36:37.076Z,28.00
2023-02-11T00:37:37.096Z,27.97
2023-02-11T00:38:37.070Z,27.95
2023-02-11T00:39:37.082Z,28.00
2023-02-11T00:40:37.100Z,27.99
2023-02-11T00:41:37.118Z,27.97
2023-02-11T00:42:37.130Z,27.99
2023-02-11T00:43:37.145Z,27.93
2023-02-11T00:44:37.165Z,27.96
2023-02-11T00:45:37.165Z,27.89
2023-02-11T00:46:37.242Z,27.95
2023-02-11T00:47:37.185Z,27.92
2023-02-11T00:48:37.201Z,27.91
2023-02-11T00:49:37.211Z,27.97
2023-02-11T00:50:37.238Z,27.89
2023-02-11T00:51:37.230Z,27.92
2023-02-11T00:52:37.239Z,27.93
2023-02-11T00:53:37.260Z,27.88
2023-02-11T00:54:37.272Z,27.86
2023-02-11T00:55:37.280Z,27.84
2023-02-11T00:56:37.293Z,27.88
2023-02-11T00:57:37.307Z,27.88
2023-02-11T00:58:37.329Z,27.89
2023-02-11T00:59:37.334Z,27.89
2023-02-11T01:00:37.351Z,27.88
2023-02-11T01:01:37.402Z,27.84
2023-02-11T01:02:37.370Z,27.82
2023-02-11T01:03:37.387Z,27.80
2023-02-11T01:04:37.391Z,27.81
2023-02-11T01:05:37.421Z,27.82
2023-02-11T01:06:37.418Z,27.82
2023-02-11T01:07:37.428Z,27.83
2023-02-11T01:08:37.438Z,27.78
2023-02-11T01:09:37.463Z,27.82
2023-02-11T01:10:37.492Z,27.77
2023-02-11T01:11:37.470Z,27.79
2023-02-11T01:12:37.495Z,27.80
2023-02-11T01:13:37.523Z,27.78
2023-02-11T01:14:37.539Z,27.73
2023-02-11T01:15:37.604Z,27.76
2023-02-11T01:16:37.553Z,27.77
2023-02-11T01:17:37.587Z,27.72
2023-02-11T01:18:37.578Z,27.74
2023-02-11T01:19:37.594Z,27.74
2023-02-11T01:20:37.614Z,27.72
2023-02-11T01:21:37.632Z,27.74
2023-02-11T01:22:37.646Z,27.75
2023-02-11T01:23:37.672Z,27.75
2023-02-11T01:24:37.681Z,27.75
2023-02-11T01:25:37.673Z,27.75
2023-02-11T01:26:37.675Z,27.72
2023-02-11T01:27:37.697Z,27.72
2023-02-11T01:28:37.764Z,27.73
2023-02-11T01:29:37.735Z,27.72
2023-02-11T01:30:37.759Z,27.74
2023-02-11T01:31:37.889Z,27.72
2023-02-11T01:32:37.780Z,27.74
2023-02-11T01:33:37.798Z,27.69
2023-02-11T01:34:37.816Z,27.70
2023-02-11T01:35:37.828Z,27.73
2023-02-11T01:36:37.847Z,27.74
2023-02-11T01:37:37.869Z,27.73
2023-02-11T01:38:37.885Z,27.74
2023-02-11T01:39:37.908Z,27.74
2023-02-11T01:40:37.944Z,27.72
2023-02-11T01:41:37.949Z,27.66
2023-02-11T01:42:37.964Z,27.67
2023-02-11T01:43:37.993Z,27.71
2023-02-11T01:44:38.008Z,27.71
2023-02-11T01:45:38.012Z,27.72
2023-02-11T01:46:38.125Z,27.68
2023-02-11T01:47:38.040Z,27.69
2023-02-11T01:48:38.053Z,27.70
2023-02-11T01:49:38.139Z,27.66
2023-02-11T01:50:38.072Z,27.71
2023-02-11T01:51:38.093Z,27.68
2023-02-11T01:52:38.099Z,27.69
2023-02-11T01:53:38.130Z,27.69
2023-02-11T01:54:38.115Z,27.70
2023-02-11T01:55:38.127Z,27.67
2023-02-11T01:56:38.145Z,27.70
2023-02-11T01:57:38.144Z,27.69
2023-02-11T01:58:38.155Z,27.64
2023-02-11T01:59:38.178Z,27.64
2023-02-11T02:00:38.173Z,27.65
2023-02-11T02:01:38.214Z,27.67
2023-02-11T02:02:38.192Z,27.64
2023-02-11T02:03:38.223Z,27.68
2023-02-11T02:04:38.210Z,27.63
2023-02-11T02:05:38.228Z,27.64
2023-02-11T02:06:38.257Z,27.67
2023-02-11T02:07:38.253Z,27.62
2023-02-11T02:08:38.271Z,27.64
2023-02-11T02:09:38.263Z,27.67
2023-02-11T02:10:38.270Z,27.62
2023-02-11T02:11:38.281Z,27.61
2023-02-11T02:12:38.301Z,27.58
2023-02-11T02:13:38.305Z,27.58
2023-02-11T02:14:38.299Z,27.61
2023-02-11T02:15:38.308Z,27.62
2023-02-11T02:16:38.335Z,27.58
2023-02-11T02:17:38.317Z,27.60
2023-02-11T02:18:38.331Z,27.55
2023-02-11T02:19:38.342Z,27.59
2023-02-11T02:20:38.353Z,27.61
2023-02-11T02:21:38.378Z,27.64
2023-02-11T02:22:38.390Z,27.64
2023-02-11T02:23:38.389Z,27.59
2023-02-11T02:24:38.385Z,27.59
2023-02-11T02:25:38.406Z,27.58
2023-02-11T02:26:38.415Z,27.57
2023-02-11T02:27:38.429Z,27.60
2023-02-11T02:28:38.436Z,27.63
2023-02-11T02:29:38.451Z,27.59
2023-02-11T02:30:38.475Z,27.59
2023-02-11T02:31:38.560Z,27.59
2023-02-11T02:32:38.463Z,27.54
2023-02-11T02:33:38.479Z,27.51
2023-02-11T02:34:38.485Z,27.56
2023-02-11T02:35:38.492Z,27.56
2023-02-11T02:36:38.502Z,27.59
2023-02-11T02:37:38.517Z,27.63
2023-02-11T02:38:38.521Z,27.53
2023-02-11T02:39:38.530Z,27.51
2023-02-11T02:40:38.535Z,27.51
2023-02-11T02:41:38.541Z,27.52
2023-02-11T02:42:38.541Z,27.52
2023-02-11T02:43:38.560Z,27.51
2023-02-11T02:44:38.584Z,27.53
2023-02-11T02:45:38.573Z,27.52
2023-02-11T02:46:38.624Z,27.54
2023-02-11T02:47:38.587Z,27.58
2023-02-11T02:48:38.595Z,27.53
2023-02-11T02:49:38.593Z,27.57
2023-02-11T02:50:38.607Z,27.56
2023-02-11T02:51:38.617Z,27.49
2023-02-11T02:52:38.627Z,27.51
2023-02-11T02:53:38.642Z,27.50
2023-02-11T02:54:38.648Z,27.51
2023-02-11T02:55:38.660Z,27.53
2023-02-11T02:56:38.669Z,27.53
2023-02-11T02:57:38.683Z,27.50
2023-02-11T02:58:38.692Z,27.51
2023-02-11T02:59:38.717Z,27.52
2023-02-11T03:00:38.795Z,27.51
2023-02-11T03:01:38.717Z,27.48
2023-02-11T03:02:38.729Z,27.52
2023-02-11T03:03:38.788Z,27.52
2023-02-11T03:04:38.738Z,27.48
2023-02-11T03:05:38.754Z,27.50
2023-02-11T03:06:38.765Z,27.47
2023-02-11T03:07:38.773Z,27.49
2023-02-11T03:08:38.783Z,27.49
2023-02-11T03:09:38.781Z,27.47
2023-02-11T03:10:38.792Z,27.47
2023-02-11T03:11:38.812Z,27.48
2023-02-11T03:12:38.825Z,27.48
2023-02-11T03:13:38.847Z,27.49
2023-02-11T03:14:38.841Z,27.50
2023-02-11T03:15:38.865Z,27.49
2023-02-11T03:16:38.937Z,27.48
2023-02-11T03:17:38.854Z,27.49
2023-02-11T03:18:38.861Z,27.48
2023-02-11T03:19:38.876Z,27.48
2023-02-11T03:20:38.895Z,27.51
2023-02-11T03:21:38.903Z,27.49
2023-02-11T03:22:38.923Z,27.47
2023-02-11T03:23:38.927Z,27.45
2023-02-11T03:24:38.934Z,27.46
2023-02-11T03:25:38.936Z,27.46
2023-02-11T03:26:38.942Z,27.46
2023-02-11T03:27:38.955Z,27.43
2023-02-11T03:28:38.961Z,27.48
2023-02-11T03:29:38.958Z,27.45
2023-02-11T03:30:38.981Z,27.44
2023-02-11T03:31:39.050Z,27.49
2023-02-11T03:32:39.004Z,27.52
2023-02-11T03:33:38.978Z,27.48
2023-02-11T03:34:38.994Z,27.46
2023-02-11T03:35:39.001Z,27.46
2023-02-11T03:36:39.018Z,27.41
2023-02-11T03:37:39.037Z,27.43
2023-02-11T03:38:39.041Z,27.44
2023-02-11T03:39:39.048Z,27.42
2023-02-11T03:40:39.055Z,27.44
2023-02-11T03:41:39.075Z,27.47
2023-02-11T03:42:39.091Z,27.43
2023-02-11T03:43:39.097Z,27.43
2023-02-11T03:44:39.116Z,27.44
2023-02-11T03:45:39.179Z,27.43
2023-02-11T03:46:39.133Z,27.38
2023-02-11T03:47:39.155Z,27.45
2023-02-11T03:48:39.154Z,27.40
2023-02-11T03:49:39.171Z,27.39
2023-02-11T03:50:39.177Z,27.38
2023-02-11T03:51:39.190Z,27.37
2023-02-11T03:52:39.249Z,27.36
2023-02-11T03:53:39.214Z,27.37
2023-02-11T03:54:39.228Z,27.35
2023-02-11T03:55:39.238Z,27.38
2023-02-11T03:56:39.241Z,27.29
2023-02-11T03:57:39.260Z,27.37
2023-02-11T03:58:39.276Z,27.39
2023-02-11T03:59:39.292Z,27.34
2023-02-11T04:00:39.305Z,27.36
2023-02-11T04:01:39.303Z,27.34
2023-02-11T04:02:39.320Z,27.37
2023-02-11T04:03:39.350Z,27.32
2023-02-11T06:01:41.303Z,26.95
2023-02-11T06:02:41.382Z,26.98
2023-02-11T06:03:41.431Z,27.01
2023-02-11T06:04:41.400Z,26.97
2023-02-11T06:05:41.413Z,26.97
2023-02-11T06:19:41.784Z,26.92
2023-02-11T06:20:41.811Z,26.92
2023-02-11T06:21:44.097Z,26.89
2023-02-11T06:22:41.973Z,26.89
2023-02-11T06:23:41.998Z,26.88
2023-02-11T06:25:00.404Z,26.87
2023-02-11T06:26:42.016Z,26.91
2023-02-11T06:27:42.018Z,26.89
2023-02-11T06:28:42.265Z,26.89
2023-02-11T06:29:42.016Z,26.86
2023-02-11T06:30:42.176Z,26.87
2023-02-11T06:31:42.157Z,26.87
2023-02-11T06:32:45.113Z,26.87
2023-02-11T06:33:42.014Z,26.88
2023-02-11T06:34:42.015Z,26.88
2023-02-11T06:35:42.010Z,26.86
2023-02-11T06:36:42.015Z,26.85
2023-02-11T06:37:42.007Z,26.88
2023-02-11T06:38:42.018Z,26.85
2023-02-11T06:39:42.014Z,26.86
2023-02-11T06:40:42.017Z,26.87
2023-02-11T06:41:42.012Z,26.85
2023-02-11T06:42:42.011Z,26.82
2023-02-11T06:43:42.031Z,26.82
2023-02-11T06:44:42.014Z,26.85
2023-02-11T06:45:42.076Z,26.82
2023-02-11T06:46:42.074Z,26.85
2023-02-11T06:47:42.008Z,26.88
2023-02-11T06:48:44.665Z,26.84
2023-02-11T06:49:42.006Z,26.81
2023-02-11T06:50:42.018Z,26.80
2023-02-11T06:51:42.017Z,26.84
2023-02-11T06:52:42.019Z,26.83
2023-02-11T06:53:42.016Z,26.84
2023-02-11T06:54:42.014Z,26.79
2023-02-11T06:55:42.009Z,26.82
2023-02-11T06:56:42.018Z,26.84
2023-02-11T06:57:42.024Z,26.83
2023-02-11T06:58:42.015Z,26.82
2023-02-11T06:59:42.013Z,26.82
2023-02-11T07:00:42.016Z,26.80
2023-02-11T07:01:42.063Z,26.81
2023-02-11T07:02:42.045Z,26.80
2023-02-11T07:03:42.025Z,26.77
2023-02-11T07:04:42.028Z,26.79
2023-02-11T07:05:42.028Z,26.78
2023-02-11T07:06:42.023Z,26.81
2023-02-11T07:07:42.035Z,26.82
2023-02-11T07:08:42.048Z,26.79
2023-02-11T07:09:42.043Z,26.79
2023-02-11T07:10:42.050Z,26.77
2023-02-11T07:11:42.053Z,26.80
2023-02-11T07:12:42.078Z,26.79
2023-02-11T07:13:42.059Z,26.76
2023-02-11T07:14:42.055Z,26.79
2023-02-11T07:15:42.065Z,26.78
2023-02-11T07:16:42.059Z,26.82
2023-02-11T07:17:42.062Z,26.80
2023-02-11T07:18:42.054Z,26.76
2023-02-11T07:19:42.058Z,26.77
2023-02-11T07:20:42.062Z,26.78
2023-02-11T07:21:42.055Z,26.80
2023-02-11T07:22:42.048Z,26.78
2023-02-11T07:23:42.031Z,26.77
2023-02-11T07:24:42.033Z,26.75
2023-02-11T07:25:42.024Z,26.73
2023-02-11T07:26:42.028Z,26.77
2023-02-11T07:27:42.010Z,26.79
2023-02-11T07:28:42.013Z,26.75
2023-02-11T07:29:42.008Z,26.76
2023-02-11T07:30:42.568Z,26.74
2023-02-11T07:31:42.165Z,26.75
2023-02-11T07:32:41.981Z,26.75
2023-02-11T07:33:41.978Z,26.74
2023-02-11T07:34:42.084Z,26.75
2023-02-11T07:35:42.759Z,26.78
2023-02-11T07:36:41.972Z,26.76
2023-02-11T07:37:41.972Z,26.77
2023-02-11T07:38:41.963Z,26.75
2023-02-11T07:39:41.956Z,26.76
2023-02-11T07:40:41.950Z,26.73
2023-02-11T07:41:41.949Z,26.73
2023-02-11T07:42:41.958Z,26.71
2023-02-11T07:43:41.942Z,26.73
2023-02-11T07:44:41.937Z,26.75
2023-02-11T07:45:41.930Z,26.75
2023-02-11T07:46:41.953Z,26.76
2023-02-11T07:47:41.934Z,26.73
2023-02-11T07:48:41.934Z,26.75
2023-02-11T07:49:41.928Z,26.73
2023-02-11T07:50:41.938Z,26.73
2023-02-11T07:51:41.938Z,26.74
2023-02-11T07:52:41.940Z,26.74
2023-02-11T07:53:41.936Z,26.73
2023-02-11T07:54:41.926Z,26.73
2023-02-11T07:55:41.918Z,26.72
2023-02-11T07:56:41.934Z,26.74
2023-02-11T07:57:41.909Z,26.74
2023-02-11T07:58:41.912Z,26.72
2023-02-11T07:59:41.911Z,26.72
2023-02-11T08:00:41.926Z,26.73
2023-02-11T08:01:41.895Z,26.73
2023-02-11T08:02:41.896Z,26.70
2023-02-11T08:03:41.912Z,26.69
2023-02-11T08:04:41.912Z,26.72
2023-02-11T08:05:41.906Z,26.72
2023-02-11T08:06:41.911Z,26.71
2023-02-11T08:07:41.901Z,26.72
2023-02-11T08:08:41.913Z,26.70
2023-02-11T08:09:41.901Z,26.72
2023-02-11T08:10:41.901Z,26.71
2023-02-11T08:11:41.902Z,26.70
2023-02-11T08:12:41.903Z,26.66
2023-02-11T08:13:41.895Z,26.68
2023-02-11T08:14:41.892Z,26.67
2023-02-11T08:15:41.890Z,26.67
2023-02-11T08:16:41.954Z,26.68
2023-02-11T08:17:41.920Z,26.70
2023-02-11T08:18:41.920Z,26.69
2023-02-11T08:19:41.957Z,26.68
2023-02-11T08:20:41.980Z,26.67
2023-02-11T08:21:42.025Z,26.70
2023-02-11T08:22:42.031Z,26.69
2023-02-11T08:23:42.071Z,26.64
2023-02-11T08:24:42.104Z,26.63
2023-02-11T08:25:42.138Z,26.63
2023-02-11T08:26:42.174Z,26.70
2023-02-11T08:27:42.211Z,26.66
2023-02-11T08:28:42.241Z,26.69
2023-02-11T08:29:42.282Z,26.66
2023-02-11T08:30:42.354Z,26.67
2023-02-11T08:31:42.426Z,26.66
2023-02-11T08:32:42.337Z,26.66
2023-02-11T08:33:42.367Z,26.67
2023-02-11T08:34:42.409Z,26.62
2023-02-11T08:35:42.441Z,26.60
2023-02-11T08:36:42.482Z,26.64
2023-02-11T08:37:42.516Z,26.64
2023-02-11T08:38:42.553Z,26.67
2023-02-11T08:39:42.573Z,26.59
2023-02-11T08:40:42.607Z,26.63
2023-02-11T08:41:42.634Z,26.62
2023-02-11T08:42:42.648Z,26.63
2023-02-11T08:43:42.690Z,26.63
2023-02-11T08:44:42.722Z,26.64
2023-02-11T08:45:42.796Z,26.63
2023-02-11T08:46:42.767Z,26.63
2023-02-11T08:47:42.799Z,26.62
2023-02-11T08:48:42.832Z,26.61
2023-02-11T08:49:42.846Z,26.61
2023-02-11T08:50:42.873Z,26.61
2023-02-11T08:51:42.905Z,26.60
2023-02-11T08:52:42.924Z,26.64
2023-02-11T08:53:42.945Z,26.58
2023-02-11T08:54:42.978Z,26.59
2023-02-11T08:55:43.010Z,26.61
2023-02-11T08:56:43.047Z,26.59
2023-02-11T08:57:43.072Z,26.60
2023-02-11T08:58:43.094Z,26.63
2023-02-11T08:59:43.125Z,26.59
2023-02-11T09:00:43.163Z,26.59
2023-02-11T09:01:43.197Z,26.62
2023-02-11T09:02:43.261Z,26.64
2023-02-11T09:03:43.259Z,26.61
2023-02-11T09:04:43.264Z,26.61
2023-02-11T09:05:43.292Z,26.60
2023-02-11T09:06:43.328Z,26.58
2023-02-11T09:07:43.359Z,26.62
2023-02-11T09:08:46.078Z,26.59
2023-02-11T09:09:43.386Z,26.60
2023-02-11T09:10:43.372Z,26.59
2023-02-11T09:11:43.378Z,26.59
2023-02-11T09:12:43.384Z,26.56
2023-02-11T09:13:43.355Z,26.55
2023-02-11T09:14:43.352Z,26.58
2023-02-11T09:15:43.350Z,26.56
2023-02-11T09:16:43.399Z,26.56
2023-02-11T09:17:43.343Z,26.54
2023-02-11T09:18:43.342Z,26.53
2023-02-11T09:19:43.339Z,26.55
2023-02-11T09:20:43.332Z,26.53
2023-02-11T09:21:43.341Z,26.55
2023-02-11T09:22:43.327Z,26.51
2023-02-11T09:23:43.330Z,26.47
2023-02-11T09:24:43.337Z,26.53
2023-02-11T09:25:43.333Z,26.53
2023-02-11T09:26:43.342Z,26.52
2023-02-11T09:27:43.347Z,26.54
2023-02-11T09:28:43.353Z,26.51
2023-02-11T09:29:43.346Z,26.48
2023-02-11T09:30:43.426Z,26.51
2023-02-11T09:31:43.449Z,26.45
2023-02-11T09:32:43.345Z,26.51
2023-02-11T09:33:43.344Z,26.51
2023-02-11T09:34:43.343Z,26.52
2023-02-11T09:35:43.342Z,26.49
2023-02-11T09:36:43.337Z,26.47
2023-02-11T09:37:43.332Z,26.38
2023-02-11T09:38:43.325Z,26.36
2023-02-11T09:39:43.317Z,26.35
2023-02-11T09:40:43.309Z,26.43
2023-02-11T09:41:43.319Z,26.48
2023-02-11T09:42:43.312Z,26.50
2023-02-11T09:43:43.321Z,26.50
2023-02-11T09:44:43.297Z,26.47
2023-02-11T09:45:43.321Z,26.46
2023-02-11T09:46:43.293Z,26.47
2023-02-11T09:47:43.296Z,26.47
2023-02-11T09:48:43.286Z,26.45
2023-02-11T09:49:43.287Z,26.45
2023-02-11T09:50:43.284Z,26.36
2023-02-11T09:51:43.282Z,26.46
2023-02-11T09:52:43.264Z,26.47
2023-02-11T09:53:43.271Z,26.43
2023-02-11T09:54:43.264Z,26.47
2023-02-11T09:55:43.251Z,26.43
2023-02-11T09:56:43.250Z,26.37
2023-02-11T09:57:43.241Z,26.31
2023-02-11T09:58:43.249Z,26.29
2023-02-11T09:59:43.238Z,26.25
2023-02-11T10:00:43.237Z,26.27
2023-02-11T10:01:43.253Z,26.31
2023-02-11T10:02:43.227Z,26.39
2023-02-11T10:03:44.094Z,26.37
2023-02-11T10:04:43.263Z,26.41
2023-02-11T10:05:43.221Z,26.41
2023-02-11T10:06:43.279Z,26.43
2023-02-11T10:07:43.223Z,26.41
2023-02-11T10:08:43.221Z,26.37
2023-02-11T10:09:43.223Z,26.36
2023-02-11T10:10:43.224Z,26.43
2023-02-11T10:11:43.235Z,26.33
2023-02-11T10:12:43.230Z,26.32
2023-02-11T10:13:43.226Z,26.31
2023-02-11T10:14:43.219Z,26.31
2023-02-11T10:15:43.262Z,26.42
2023-02-11T10:16:43.224Z,26.46
2023-02-11T10:17:43.214Z,26.39
2023-02-11T10:18:43.317Z,26.40
2023-02-11T10:19:43.210Z,26.42
2023-02-11T10:20:43.203Z,26.38
2023-02-11T10:21:43.205Z,26.27
2023-02-11T10:22:43.203Z,26.26
2023-02-11T10:23:43.200Z,26.22
2023-02-11T10:24:43.185Z,26.30
2023-02-11T10:25:45.218Z,26.33
2023-02-11T10:26:43.187Z,26.32
2023-02-11T10:27:43.170Z,26.24
2023-02-11T10:28:43.307Z,26.25
2023-02-11T10:29:43.157Z,26.22
2023-02-11T10:30:43.222Z,26.21
2023-02-11T10:31:43.198Z,26.19
2023-02-11T10:32:43.148Z,26.18
2023-02-11T10:33:43.179Z,26.19
2023-02-11T10:34:43.204Z,26.21
2023-02-11T10:35:43.240Z,26.19
2023-02-11T10:36:43.272Z,26.20
2023-02-11T10:37:44.623Z,26.24
2023-02-11T10:38:43.319Z,26.24
2023-02-11T10:39:43.340Z,26.18
2023-02-11T10:40:43.369Z,26.18
2023-02-11T10:41:43.395Z,26.19
2023-02-11T10:42:43.407Z,26.19
2023-02-11T10:43:43.442Z,26.18
2023-02-11T10:44:43.472Z,26.18
2023-02-11T10:45:43.498Z,26.17
2023-02-11T10:46:43.563Z,26.17
2023-02-11T10:47:43.570Z,26.17
2023-02-11T10:48:43.637Z,26.15
2023-02-11T10:49:43.622Z,26.14
2023-02-11T10:50:43.660Z,26.11
2023-02-11T10:51:43.677Z,26.13
2023-02-11T10:52:43.700Z,26.10
2023-02-11T10:53:43.731Z,26.13
2023-02-11T10:54:43.746Z,26.13
2023-02-11T10:55:43.768Z,26.16
2023-02-11T10:56:43.799Z,26.15
2023-02-11T10:57:43.847Z,26.12
2023-02-11T10:58:43.858Z,26.11
2023-02-11T10:59:43.883Z,26.12
2023-02-11T11:00:43.921Z,26.10
2023-02-11T11:01:44.046Z,26.11
2023-02-11T11:02:43.985Z,26.14
2023-02-11T11:03:44.015Z,26.11
2023-02-11T11:04:44.130Z,26.08
2023-02-11T11:05:44.066Z,26.07
2023-02-11T11:06:44.098Z,26.04
2023-02-11T11:07:44.131Z,26.06
2023-02-11T11:08:44.134Z,26.06
2023-02-11T11:09:44.161Z,26.06
2023-02-11T11:10:44.244Z,26.03
2023-02-11T11:11:44.219Z,26.02
2023-02-11T11:12:44.244Z,25.99
2023-02-11T11:13:44.252Z,25.98
2023-02-11T11:14:44.265Z,25.93
2023-02-11T11:15:44.298Z,25.92
2023-02-11T11:16:44.316Z,25.95
2023-02-11T11:17:44.340Z,25.95
2023-02-11T11:18:44.369Z,25.96
2023-02-11T11:19:44.404Z,25.98
2023-02-11T11:20:44.418Z,25.97
2023-02-11T12:00:45.148Z,25.95
2023-02-11T12:01:45.193Z,25.95
2023-02-11T12:02:45.238Z,25.95
2023-02-11T12:03:45.208Z,25.97
2023-02-11T12:04:45.226Z,25.95
2023-02-11T12:05:45.235Z,25.93
2023-02-11T12:06:45.259Z,25.96
2023-02-11T12:07:45.281Z,25.93
2023-02-11T12:08:45.305Z,25.96
2023-02-11T12:09:45.329Z,25.96
2023-02-11T12:10:45.349Z,25.96
2023-02-11T12:11:45.369Z,25.96
2023-02-11T12:12:46.893Z,25.97
2023-02-11T12:13:45.409Z,25.95
2023-02-11T12:14:45.422Z,25.95
2023-02-11T12:15:45.446Z,25.94
2023-02-11T12:16:45.547Z,25.99
2023-02-11T12:17:45.486Z,25.97
2023-02-11T12:18:47.443Z,25.97
2023-02-11T12:19:45.522Z,25.98
2023-02-11T12:20:45.538Z,25.98
2023-02-11T12:21:45.565Z,25.97
2023-02-11T12:22:45.589Z,25.96
2023-02-11T12:23:45.618Z,25.96
2023-02-11T12:24:45.649Z,25.95
2023-02-11T12:25:45.666Z,25.95
2023-02-11T12:26:45.680Z,25.94
2023-02-11T12:27:45.701Z,25.94
2023-02-11T12:28:45.721Z,25.97
2023-02-11T12:29:45.755Z,25.98
2023-02-11T12:30:45.857Z,25.96
2023-02-11T12:31:45.839Z,25.95
2023-02-11T12:32:45.827Z,25.96
2023-02-11T12:36:45.904Z,26.00
2023-02-11T12:37:45.941Z,25.98
2023-02-11T12:38:45.949Z,25.98
2023-02-11T12:39:46.060Z,25.99
2023-02-11T12:40:46.024Z,26.00
2023-02-11T12:41:46.039Z,26.01
2023-02-11T12:42:46.052Z,26.03
2023-02-11T12:43:46.066Z,26.02
2023-02-11T12:44:46.094Z,26.02
2023-02-11T12:45:46.141Z,26.03
2023-02-11T12:46:46.134Z,26.04
2023-02-11T12:47:46.167Z,26.06
2023-02-11T12:48:46.197Z,26.06
2023-02-11T12:49:46.229Z,26.06
2023-02-11T12:50:46.259Z,26.07
2023-02-11T12:51:46.273Z,26.06
2023-02-11T12:52:46.306Z,26.05
2023-02-11T12:53:46.338Z,26.08
2023-02-11T12:54:46.378Z,26.09
2023-02-11T12:55:46.405Z,26.08
2023-02-11T12:56:46.426Z,26.07
2023-02-11T12:57:46.464Z,26.04
2023-02-11T12:58:46.482Z,26.10
2023-02-11T12:59:46.508Z,26.09
2023-02-11T13:00:46.553Z,26.05
2023-02-11T13:01:46.562Z,26.10
2023-02-11T13:02:46.727Z,26.08
2023-02-11T13:03:46.635Z,26.06
2023-02-11T13:04:46.659Z,26.08
2023-02-11T13:05:46.680Z,26.10
2023-02-11T13:06:46.720Z,26.12
2023-02-11T13:07:46.745Z,26.13
2023-02-11T13:08:46.780Z,26.12
2023-02-11T13:09:46.814Z,26.11
2023-02-11T13:10:46.837Z,26.10
2023-02-11T13:11:46.860Z,26.12
2023-02-11T13:12:46.909Z,26.10
2023-02-11T13:13:46.938Z,26.10
2023-02-11T13:14:46.977Z,26.10
2023-02-11T13:15:47.006Z,26.12
2023-02-11T13:16:47.165Z,26.09
2023-02-11T13:17:47.070Z,26.12
2023-02-11T13:18:47.109Z,26.13
2023-02-11T13:19:47.146Z,26.12
2023-02-11T13:20:47.184Z,26.10
2023-02-11T13:21:47.216Z,26.10
2023-02-11T13:22:47.255Z,26.11
2023-02-11T13:23:47.290Z,26.12
2023-02-11T13:24:47.334Z,26.13
2023-02-11T13:25:47.369Z,26.14
2023-02-11T13:26:47.403Z,26.16
2023-02-11T13:27:47.461Z,26.18
2023-02-11T13:28:47.478Z,26.16
2023-02-11T13:29:47.514Z,26.15
2023-02-11T13:30:47.652Z,26.18
2023-02-11T13:31:47.672Z,26.17
2023-02-11T13:32:47.621Z,26.18
2023-02-11T13:33:47.647Z,26.18
2023-02-11T13:34:47.680Z,26.20
2023-02-11T13:35:47.717Z,26.22
2023-02-11T13:36:47.759Z,26.23
2023-02-11T13:37:47.801Z,26.21
2023-02-11T13:38:47.828Z,26.20
2023-02-11T13:39:47.879Z,26.22
2023-02-11T13:40:47.908Z,26.26
2023-02-11T13:41:48.902Z,26.24
2023-02-11T13:42:48.003Z,26.25
2023-02-11T13:43:48.021Z,26.26
2023-02-11T13:44:48.067Z,26.28
2023-02-11T13:45:48.138Z,26.27
2023-02-11T13:46:48.130Z,26.27
2023-02-11T13:47:49.806Z,26.29
2023-02-11T13:48:48.168Z,26.29
2023-02-11T13:49:48.169Z,26.31
2023-02-11T13:50:48.178Z,26.32
2023-02-11T13:51:48.168Z,26.32
2023-02-11T13:52:48.165Z,26.33
2023-02-11T14:54:48.169Z,26.64
2023-02-11T14:55:48.211Z,26.64
2023-02-11T14:56:48.271Z,26.67
2023-02-11T14:57:48.315Z,26.65
2023-02-11T14:58:48.352Z,26.65
2023-02-11T14:59:48.395Z,26.65
2023-02-11T15:00:48.556Z,26.66
2023-02-11T15:01:48.503Z,26.67
2023-02-11T15:02:48.629Z,26.68
2023-02-11T15:03:48.565Z,26.70
2023-02-11T15:04:48.617Z,26.69
2023-02-11T15:05:48.648Z,26.68
2023-02-11T15:06:48.699Z,26.70
2023-02-11T15:07:48.759Z,26.71
2023-02-11T15:08:48.808Z,26.73
2023-02-11T15:09:48.843Z,26.73
2023-02-11T15:10:49.220Z,26.77
2023-02-11T15:12:48.986Z,26.73
2023-02-11T15:13:49.027Z,26.77
2023-02-11T15:14:49.076Z,26.78
2023-02-11T17:13:55.151Z,27.38
2023-02-11T17:14:55.206Z,27.41
2023-02-11T17:15:55.603Z,27.39
2023-02-11T17:16:55.356Z,27.40
2023-02-11T17:17:55.398Z,27.40
2023-02-11T17:18:55.486Z,27.41
2023-02-11T17:19:55.608Z,27.45
2023-02-11T17:20:55.578Z,27.43
2023-02-11T17:21:55.662Z,27.43
2023-02-11T17:22:55.720Z,27.40
2023-02-11T17:23:55.773Z,27.44
2023-02-11T17:24:55.836Z,27.49
2023-02-11T17:25:55.892Z,27.47
2023-02-11T17:26:55.926Z,27.44
2023-02-11T17:27:56.028Z,27.47
2023-02-11T19:38:03.614Z,27.90
2023-02-11T19:54:05.295Z,27.95
2023-02-11T20:05:05.190Z,27.99
2023-02-11T20:06:05.257Z,27.94
2023-02-11T20:07:05.295Z,27.92
2023-02-11T20:08:05.368Z,27.94
2023-02-11T20:09:05.423Z,27.97
2023-02-11T20:10:05.515Z,27.95
2023-02-11T20:11:05.518Z,27.98
2023-02-11T20:12:05.560Z,27.96
2023-02-11T20:47:07.314Z,27.99
2023-02-11T20:48:07.334Z,28.02
2023-02-11T20:49:07.384Z,28.00
2023-02-11T20:50:07.410Z,27.98
2023-02-11T20:51:07.482Z,28.01
2023-02-11T20:52:07.547Z,28.02
2023-02-11T20:53:07.611Z,28.06
2023-02-11T20:54:07.660Z,28.04
2023-02-11T20:55:07.676Z,28.03
2023-02-11T20:56:07.709Z,28.01
2023-02-11T20:57:07.725Z,28.00
2023-02-11T20:58:07.744Z,28.03
2023-02-11T20:59:07.842Z,28.06
2023-02-11T21:00:07.809Z,28.06
2023-02-11T21:01:07.843Z,28.03
2023-02-11T21:02:07.914Z,28.04
2023-02-11T21:03:07.984Z,28.02
2023-02-11T21:04:07.971Z,28.03
2023-02-11T21:05:08.016Z,28.05
2023-02-11T21:06:08.054Z,28.04
2023-02-11T23:52:15.152Z,28.20
2023-02-11T23:53:15.181Z,28.23
2023-02-11T23:54:15.219Z,28.24
2023-02-11T23:55:15.246Z,28.23
2023-02-11T23:56:15.313Z,28.21
2023-02-11T23:57:15.389Z,28.20
2023-02-11T23:58:15.452Z,28.21
2023-02-11T23:59:15.497Z,28.19
